»·PEaware :: ASA1968 KSFO-KSAN

ASA1968 :: KSFO-KSAN

FLIGHT INFORMATION

Flight Status: Arrived
Operator:
Alaska Airlines
More flights by this operator :: More flights under this callsign
Pilot: Robbie W. (28767)
Aircraft: BOEING 737-900
(B739)
More flights by this aircraft type
Origin: KSFO San Francisco Intl
United States
Destination: KSAN San Diego Intl-Lindbergh
United States
More flights between these airports :: More routes between these airports
Route: SAHEY3 CISKO FLW LAX COMIX2
File this flight plan on PilotEdge
Remarks: RMK / SIMBRIEF
Altitude:
(Current/Filed)
33,000ft
Speed:
(Current/Filed)
444kts
Departed: 04-Apr-20 12:42 PM
Arrived: 04-Apr-20 01:55 PM
Distance/Time
Traveled:
388nm/1:13
Distance/Time
To Go:
Arrived

Flight Plot

Page will automatically refresh every two minutes.

Flight plan parsing failed; only flown route is shown


Map Options




Map Legend


Flown Route
Filed Route
Departure Airport
Arrival Airport
Navaid (VOR, NDB)
Fix

Horizontal Profiles

Position Reports

Time Latitude Longitude Heading Altitude Ground
Speed
04-Apr-20 12:15 37.613355 -122.383656 211 21ft 0kts
04-Apr-20 12:16 37.613355 -122.383656 211 21ft 0kts
04-Apr-20 12:17 37.613355 -122.383656 211 21ft 0kts
04-Apr-20 12:17 37.613355 -122.383656 211 21ft 0kts
04-Apr-20 12:19 37.613355 -122.383656 211 21ft 0kts
04-Apr-20 12:20 37.613355 -122.383656 211 21ft 0kts
04-Apr-20 12:21 37.613355 -122.383656 211 21ft 0kts
04-Apr-20 12:21 37.613355 -122.383656 211 21ft 0kts
04-Apr-20 12:23 37.613355 -122.383656 211 21ft 0kts
04-Apr-20 12:24 37.613355 -122.383656 211 21ft 0kts
04-Apr-20 12:24 37.613481 -122.383565 202 21ft 2kts
04-Apr-20 12:25 37.614138 -122.383841 117 21ft 2kts
04-Apr-20 12:26 37.614148 -122.383864 117 21ft 0kts
04-Apr-20 12:27 37.614148 -122.383864 117 21ft 0kts
04-Apr-20 12:28 37.614148 -122.383864 117 21ft 0kts
04-Apr-20 12:29 37.614148 -122.383864 117 21ft 0kts
04-Apr-20 12:30 37.614148 -122.383864 117 21ft 0kts
04-Apr-20 12:31 37.614148 -122.383864 117 21ft 0kts
04-Apr-20 12:32 37.614148 -122.383864 117 21ft 0kts
04-Apr-20 12:33 37.614148 -122.383864 117 21ft 0kts
04-Apr-20 12:34 37.613625 -122.382605 118 21ft 12kts
04-Apr-20 12:35 37.616058 -122.379999 27 21ft 4kts
04-Apr-20 12:36 37.616706 -122.379586 19 21ft 13kts
04-Apr-20 12:37 37.619557 -122.381756 298 21ft 24kts
04-Apr-20 12:38 37.622266 -122.386499 307 21ft 13kts
04-Apr-20 12:39 37.625220 -122.393335 331 21ft 0kts
04-Apr-20 12:40 37.626006 -122.393085 55 21ft 13kts
04-Apr-20 12:41 37.612614 -122.359127 117 695ft 196kts
04-Apr-20 12:42 37.587420 -122.295534 119 3507ft 243kts
04-Apr-20 12:43 37.548568 -122.220265 141 6631ft 277kts
04-Apr-20 12:44 37.488976 -122.153695 142 10225ft 295kts
04-Apr-20 12:45 37.420199 -122.081107 145 12456ft 352kts
04-Apr-20 12:46 37.342433 -122.000692 148 15422ft 370kts
04-Apr-20 12:47 37.256644 -121.925049 151 18192ft 385kts
04-Apr-20 12:48 37.167396 -121.846927 151 19033ft 393kts
04-Apr-20 12:49 37.077354 -121.767875 151 19591ft 400kts
04-Apr-20 12:50 36.984846 -121.686226 151 21874ft 414kts
04-Apr-20 12:51 36.889255 -121.602294 152 23802ft 427kts
04-Apr-20 12:52 36.790305 -121.515741 152 25552ft 437kts
04-Apr-20 12:53 36.689271 -121.427671 152 27078ft 446kts
04-Apr-20 12:54 36.586636 -121.338265 152 28357ft 455kts
04-Apr-20 12:55 36.483125 -121.248702 153 29985ft 450kts
04-Apr-20 12:56 36.381532 -121.160942 152 31342ft 449kts
04-Apr-20 12:57 36.284365 -121.062098 148 32562ft 451kts
04-Apr-20 12:58 36.187468 -120.962394 148 32992ft 453kts
04-Apr-20 12:59 36.091079 -120.863858 148 32992ft 449kts
04-Apr-20 13:00 35.994757 -120.765612 148 32991ft 449kts
04-Apr-20 13:01 35.898434 -120.667694 147 32990ft 448kts
04-Apr-20 13:02 35.801671 -120.569963 147 32990ft 448kts
04-Apr-20 13:03 35.705109 -120.472846 147 32990ft 448kts
04-Apr-20 13:04 35.608357 -120.376199 147 32994ft 448kts
04-Apr-20 13:05 35.511932 -120.280231 147 32998ft 448kts
04-Apr-20 13:06 35.415402 -120.184296 147 33002ft 447kts
04-Apr-20 13:07 35.318775 -120.088088 147 33002ft 446kts
04-Apr-20 13:08 35.222163 -119.992527 147 33003ft 446kts
04-Apr-20 13:09 35.125618 -119.897563 147 33000ft 445kts
04-Apr-20 13:10 35.034429 -119.793794 138 32987ft 452kts
04-Apr-20 13:11 34.947590 -119.683520 139 32984ft 450kts
04-Apr-20 13:12 34.860283 -119.573985 139 32997ft 449kts
04-Apr-20 13:13 34.773889 -119.465502 139 32998ft 449kts
04-Apr-20 13:14 34.686573 -119.356554 139 33003ft 449kts
04-Apr-20 13:15 34.599415 -119.248286 139 32993ft 448kts
04-Apr-20 13:16 34.512092 -119.140193 139 32977ft 448kts
04-Apr-20 13:17 34.424584 -119.032223 139 32971ft 448kts
04-Apr-20 13:18 34.337093 -118.924616 139 32969ft 448kts
04-Apr-20 13:19 34.249754 -118.817525 139 32966ft 447kts
04-Apr-20 13:20 34.162278 -118.710589 139 32965ft 447kts
04-Apr-20 13:21 34.076010 -118.605183 139 32962ft 446kts
04-Apr-20 13:22 33.987774 -118.498164 139 32968ft 444kts
04-Apr-20 13:23 33.903173 -118.393571 136 32717ft 429kts
04-Apr-20 13:24 33.824033 -118.290713 137 30963ft 412kts
04-Apr-20 13:25 33.747311 -118.190832 136 29118ft 402kts
04-Apr-20 13:26 33.672861 -118.093002 136 27291ft 393kts
04-Apr-20 13:27 33.599470 -117.997047 136 25476ft 386kts
04-Apr-20 13:28 33.526645 -117.904485 140 23698ft 378kts
04-Apr-20 13:29 33.451299 -117.818060 139 21939ft 371kts
04-Apr-20 13:30 33.375847 -117.736192 142 20193ft 365kts
04-Apr-20 13:31 33.300594 -117.656118 141 18433ft 360kts
04-Apr-20 13:32 33.226716 -117.577708 141 17022ft 344kts
04-Apr-20 13:33 33.156204 -117.503546 142 15006ft 332kts
04-Apr-20 13:34 33.084137 -117.439111 148 12993ft 319kts
04-Apr-20 13:35 33.017478 -117.383609 148 11640ft 301kts
04-Apr-20 13:36 32.949166 -117.326384 147 10436ft 294kts
04-Apr-20 13:37 32.883972 -117.271978 147 9392ft 285kts
04-Apr-20 13:38 32.820287 -117.216822 132 7982ft 284kts
04-Apr-20 13:39 32.792873 -117.128156 104 6559ft 291kts
04-Apr-20 13:40 32.770326 -117.040891 115 5955ft 251kts
04-Apr-20 13:41 32.744103 -116.967850 107 5973ft 239kts
04-Apr-20 13:42 32.726262 -116.891417 106 5972ft 240kts
04-Apr-20 13:43 32.708537 -116.814953 106 5965ft 240kts
04-Apr-20 13:44 32.692005 -116.741597 105 5871ft 204kts
04-Apr-20 13:45 32.659550 -116.744904 268 5231ft 174kts
04-Apr-20 13:46 32.670839 -116.801553 283 5139ft 175kts
04-Apr-20 13:47 32.683286 -116.857541 283 5010ft 175kts
04-Apr-20 13:48 32.679236 -116.913890 250 4508ft 180kts
04-Apr-20 13:49 32.680204 -116.969440 282 3690ft 172kts
04-Apr-20 13:50 32.693365 -117.023409 285 3073ft 166kts
04-Apr-20 13:51 32.706447 -117.077545 284 2163ft 168kts
04-Apr-20 13:52 32.718929 -117.129187 283 1148ft 157kts
04-Apr-20 13:53 32.730697 -117.177698 282 81ft 149kts
04-Apr-20 13:54 32.736372 -117.201767 247 23ft 9kts
04-Apr-20 13:55 32.735617 -117.202213 193 23ft 0kts
04-Apr-20 13:56 32.735611 -117.202215 193 23ft 1kts
04-Apr-20 13:57 32.734127 -117.201192 167 23ft 0kts

Navigation Log

Ident Type
Flight plan parsing failed, navigation log unavailable